Turvo, Brazil
Current Conditions -  °F | °C
As of 2:00 PM on Thursday 29 Jan 2015 (Local Time) from SBMG Reporting Station
Light Rain Light Rain  
Wind Chill: 73°   Ceiling: 3000
Heat Index: 73°   Visibility: 6mi
Dew Point: 72°   Wind: 13mph
Humidity: 94%   Direction: 270°W
Pressure: 29.94"   Gusts: NA
Location:  25.04°S, 51.53°W
Report Text: SBMG 291600Z 27011KT 9999 2000SW -RA SCT010 BKN030 FEW040TCU 23/22 Q1014 RERA
Loading
Personal Weather Stations






























Interactive Weather Map New forecast layout! Learn more

10-Day Weather Forecast

Advertisements
Track Severe Weather on mobile